Aboy Sienna — 9HA4236 — position and weather

sailwx.info

Track history (hours):
 
Tides and Currents Weather Stations Pressure Air Temp Water Temp Dewpoint Dewpoint Depression Visibility Wind Speed Wind Dir Waves Ship Positions

Aboy Sienna

Last reported at 2018-Aug-14 19:00 UTC. Time now 2018-Aug-14 19:27 UTC.
Position N 51°57' E 002°58'.

Length 300 m; draft 18.5 m.

Type: Cargo ship. MMSI: 249420000.

Date/timePositionNaut miles runAvg speedWind from/ knotsBaromVisibWave heightAir tempDewpointWater temp
2018-Aug-14 19:00N 51°57' E 002°58'0 0.0
2018-Aug-14 18:21N 51°57' E 002°58'0 0.0
2018-Aug-14 17:48N 51°57' E 002°58'0 0.0
2018-Aug-13 21:54N 51°56' E 002°58'18 1.8
2018-Aug-13 11:57N 51°46' E 002°35'511.3
2018-Aug-13 11:30N 51°42' E 002°30'510.8
2018-Aug-13 11:00N 51°37' E 002°24'510.3
2018-Aug-13 10:30N 51°33' E 002°20'5 9.4
2018-Aug-13 10:00N 51°30' E 002°15'5 9.9
2018-Aug-13 09:30N 51°25' E 002°12'5 9.8
2018-Aug-13 09:00N 51°21' E 002°09'5 9.9
2018-Aug-13 08:31N 51°16' E 002°07'5 9.3
2018-Aug-13 08:01N 51°13' E 002°01'510.0
2018-Aug-13 07:30N 51°11' E 001°54'510.0
2018-Aug-13 07:01N 51°08' E 001°47'510.1
2018-Aug-13 06:31N 51°05' E 001°41'510.4
2018-Aug-13 06:00N 51°01' E 001°36'511.0
2018-Aug-13 05:31N 50°57' E 001°30'611.5
2018-Aug-13 05:00N 50°51' E 001°26'611.8
2018-Aug-13 04:30N 50°46' E 001°24'611.4
2018-Aug-13 04:00N 50°41' E 001°19'611.9
2018-Aug-13 03:29N 50°37' E 001°12'3211.7
2018-Aug-13 00:45N 50°23' E 000°27'312.3
2018-Aug-13 00:30N 50°22' E 000°22'612.6
2018-Aug-13 00:01N 50°20' E 000°13'813.2
2018-Aug-12 23:26N 50°18' E 000°01'613.7
2018-Aug-12 23:00N 50°17' W 000°07'714.4
2018-Aug-12 22:31N 50°15' W 000°18'815.1
2018-Aug-12 21:59N 50°12' W 000°30'715.4
2018-Aug-12 21:31N 50°10' W 000°41'8314.0
2018-Aug-12 15:34N 49°49' W 002°46'410.5
2018-Aug-12 15:10N 49°48' W 002°52'810.3
2018-Aug-12 14:25N 49°45' W 003°03'510.1
2018-Aug-12 13:54N 49°42' W 003°10'410.1
2018-Aug-12 13:30N 49°40' W 003°15'510.1
2018-Aug-12 13:00N 49°38' W 003°22'610.4
2018-Aug-12 12:28N 49°35' W 003°30'510.4
2018-Aug-12 12:00N 49°33' W 003°36'910.4
2018-Aug-12 11:10N 49°29' W 003°48'310.7
2018-Aug-12 10:55N 49°27' W 003°52'  
2018-Aug-10 05:09N 39°58' W 010°24'311.5
2018-Aug-10 04:55N 39°55' W 010°25'1411.2
2018-Aug-10 03:42N 39°42' W 010°27'1311.3
2018-Aug-10 02:34N 39°29' W 010°29'111.2
2018-Aug-10 02:31N 39°28' W 010°29'2211.0
2018-Aug-10 00:33N 39°07' W 010°32'110.8
2018-Aug-10 00:30N 39°06' W 010°32'2110.8
2018-Aug-09 22:31N 38°45' W 010°36'011.0
2018-Aug-09 22:29N 38°45' W 010°36'510.8
2018-Aug-09 22:00N 38°40' W 010°36'710.7
2018-Aug-09 21:24N 38°33' W 010°37'510.6
2018-Aug-09 20:58N 38°29' W 010°38'810.4
2018-Aug-09 20:11N 38°20' W 010°39'310.4
2018-Aug-09 19:52N 38°17' W 010°40'410.5
2018-Aug-09 19:30N 38°13' W 010°40'510.4
2018-Aug-09 19:00N 38°08' W 010°41'510.5
2018-Aug-09 18:30N 38°03' W 010°42'33311.6
2018-Aug-08 13:42N 32°37' W 012°05'1811.6
2018-Aug-08 12:09N 32°20' W 012°10'211.4
2018-Aug-08 12:00N 32°18' W 012°11'3711.2
2018-Aug-08 08:39N 31°42' W 012°21'4011.2
2018-Aug-08 05:05N 31°03' W 012°32'111.0
2018-Aug-08 05:00N 31°02' W 012°32'1710.8
2018-Aug-08 03:25N 30°45' W 012°37'410.6
2018-Aug-08 03:00N 30°41' W 012°38'510.8
2018-Aug-08 02:30N 30°36' W 012°39'510.8
2018-Aug-08 02:00N 30°30' W 012°40'610.9
2018-Aug-08 01:29N 30°25' W 012°42'510.7
2018-Aug-08 01:00N 30°20' W 012°43'610.4
2018-Aug-08 00:28N 30°15' W 012°45'510.6
2018-Aug-07 23:59N 30°10' W 012°47'610.8
2018-Aug-07 23:26N 30°04' W 012°48'611.0
2018-Aug-07 22:52N 29°58' W 012°49'411.3
2018-Aug-07 22:31N 29°54' W 012°51'911.2
2018-Aug-07 21:44N 29°45' W 012°53'311.3
2018-Aug-07 21:30N 29°43' W 012°53'611.3
2018-Aug-07 21:00N 29°37' W 012°55'611.4
2018-Aug-07 20:30N 29°32' W 012°57'611.4
2018-Aug-07 19:58N 29°26' W 012°58'611.7
2018-Aug-07 19:25N 29°20' W 013°01'811.8
2018-Aug-07 18:43N 29°12' W 013°04'311.8
2018-Aug-07 18:30N 29°10' W 013°05'911.7
2018-Aug-07 17:46N 29°02' W 013°10'411.6
2018-Aug-07 17:27N 28°59' W 013°12'511.6
2018-Aug-07 17:00N 28°54' W 013°14'611.6
2018-Aug-07 16:30N 28°49' W 013°17'611.4
2018-Aug-07 16:00N 28°44' W 013°20'611.4
2018-Aug-07 15:30N 28°38' W 013°22'611.9
2018-Aug-07 15:00N 28°33' W 013°25'812.0
2018-Aug-07 14:22N 28°26' W 013°29'712.2
2018-Aug-07 13:50N 28°20' W 013°32'412.2
2018-Aug-07 13:29N 28°16' W 013°34'612.0
2018-Aug-07 12:57N 28°10' W 013°37'511.7
2018-Aug-07 12:29N 28°05' W 013°40'611.6
2018-Aug-07 12:00N 28°00' W 013°42'711.4
2018-Aug-07 11:21N 27°54' W 013°47'412.0
2018-Aug-07 11:00N 27°51' W 013°51'612.0
2018-Aug-07 10:30N 27°47' W 013°56'711.9
2018-Aug-07 09:55N 27°42' W 014°01'912.0
2018-Aug-07 09:09N 27°36' W 014°08'512.3
2018-Aug-07 08:43N 27°32' W 014°13'312.5
2018-Aug-07 08:30N 27°30' W 014°15'612.4
2018-Aug-07 07:59N 27°26' W 014°20'612.3
2018-Aug-07 07:30N 27°21' W 014°24'612.2
2018-Aug-07 07:00N 27°17' W 014°29'812.4
2018-Aug-07 06:22N 27°11' W 014°35'512.2
2018-Aug-07 05:59N 27°08' W 014°39'5211.5
2018-Aug-07 01:28N 26°31' W 015°19'  
Track history (hours):
 
Tides and Currents Weather Stations Pressure Air Temp Water Temp Dewpoint Dewpoint Depression Visibility Wind Speed Wind Dir Waves Ship Positions

Aboy Sienna

Last reported at 2018-Aug-14 19:00 UTC. Time now 2018-Aug-14 19:27 UTC.
Position N 51°57' E 002°58'.

Length 300 m; draft 18.5 m.

Type: Cargo ship. MMSI: 249420000.

Date/timePositionNaut miles runAvg speedWind from/ knotsBaromVisibWave heightAir tempDewpointWater temp
2018-Aug-14 19:00N 51°57' E 002°58'0 0.0
2018-Aug-14 18:21N 51°57' E 002°58'0 0.0
2018-Aug-14 17:48N 51°57' E 002°58'0 0.0
2018-Aug-13 21:54N 51°56' E 002°58'18 1.8
2018-Aug-13 11:57N 51°46' E 002°35'511.3
2018-Aug-13 11:30N 51°42' E 002°30'510.8
2018-Aug-13 11:00N 51°37' E 002°24'510.3
2018-Aug-13 10:30N 51°33' E 002°20'5 9.4
2018-Aug-13 10:00N 51°30' E 002°15'5 9.9
2018-Aug-13 09:30N 51°25' E 002°12'5 9.8
2018-Aug-13 09:00N 51°21' E 002°09'5 9.9
2018-Aug-13 08:31N 51°16' E 002°07'5 9.3
2018-Aug-13 08:01N 51°13' E 002°01'510.0
2018-Aug-13 07:30N 51°11' E 001°54'510.0
2018-Aug-13 07:01N 51°08' E 001°47'510.1
2018-Aug-13 06:31N 51°05' E 001°41'510.4
2018-Aug-13 06:00N 51°01' E 001°36'511.0
2018-Aug-13 05:31N 50°57' E 001°30'611.5
2018-Aug-13 05:00N 50°51' E 001°26'611.8
2018-Aug-13 04:30N 50°46' E 001°24'611.4
2018-Aug-13 04:00N 50°41' E 001°19'611.9
2018-Aug-13 03:29N 50°37' E 001°12'3211.7
2018-Aug-13 00:45N 50°23' E 000°27'312.3
2018-Aug-13 00:30N 50°22' E 000°22'612.6
2018-Aug-13 00:01N 50°20' E 000°13'813.2
2018-Aug-12 23:26N 50°18' E 000°01'613.7
2018-Aug-12 23:00N 50°17' W 000°07'714.4
2018-Aug-12 22:31N 50°15' W 000°18'815.1
2018-Aug-12 21:59N 50°12' W 000°30'715.4
2018-Aug-12 21:31N 50°10' W 000°41'8314.0
2018-Aug-12 15:34N 49°49' W 002°46'410.5
2018-Aug-12 15:10N 49°48' W 002°52'810.3
2018-Aug-12 14:25N 49°45' W 003°03'510.1
2018-Aug-12 13:54N 49°42' W 003°10'410.1
2018-Aug-12 13:30N 49°40' W 003°15'510.1
2018-Aug-12 13:00N 49°38' W 003°22'610.4
2018-Aug-12 12:28N 49°35' W 003°30'510.4
2018-Aug-12 12:00N 49°33' W 003°36'910.4
2018-Aug-12 11:10N 49°29' W 003°48'310.7
2018-Aug-12 10:55N 49°27' W 003°52'  
2018-Aug-10 05:09N 39°58' W 010°24'311.5
2018-Aug-10 04:55N 39°55' W 010°25'1411.2
2018-Aug-10 03:42N 39°42' W 010°27'1311.3
2018-Aug-10 02:34N 39°29' W 010°29'111.2
2018-Aug-10 02:31N 39°28' W 010°29'2211.0
2018-Aug-10 00:33N 39°07' W 010°32'110.8
2018-Aug-10 00:30N 39°06' W 010°32'2110.8
2018-Aug-09 22:31N 38°45' W 010°36'011.0
2018-Aug-09 22:29N 38°45' W 010°36'510.8
2018-Aug-09 22:00N 38°40' W 010°36'710.7
2018-Aug-09 21:24N 38°33' W 010°37'510.6
2018-Aug-09 20:58N 38°29' W 010°38'810.4
2018-Aug-09 20:11N 38°20' W 010°39'310.4
2018-Aug-09 19:52N 38°17' W 010°40'410.5
2018-Aug-09 19:30N 38°13' W 010°40'510.4
2018-Aug-09 19:00N 38°08' W 010°41'510.5
2018-Aug-09 18:30N 38°03' W 010°42'33311.6
2018-Aug-08 13:42N 32°37' W 012°05'1811.6
2018-Aug-08 12:09N 32°20' W 012°10'211.4
2018-Aug-08 12:00N 32°18' W 012°11'3711.2
2018-Aug-08 08:39N 31°42' W 012°21'4011.2
2018-Aug-08 05:05N 31°03' W 012°32'111.0
2018-Aug-08 05:00N 31°02' W 012°32'1710.8
2018-Aug-08 03:25N 30°45' W 012°37'410.6
2018-Aug-08 03:00N 30°41' W 012°38'510.8
2018-Aug-08 02:30N 30°36' W 012°39'510.8
2018-Aug-08 02:00N 30°30' W 012°40'610.9
2018-Aug-08 01:29N 30°25' W 012°42'510.7
2018-Aug-08 01:00N 30°20' W 012°43'610.4
2018-Aug-08 00:28N 30°15' W 012°45'510.6
2018-Aug-07 23:59N 30°10' W 012°47'610.8
2018-Aug-07 23:26N 30°04' W 012°48'611.0
2018-Aug-07 22:52N 29°58' W 012°49'411.3
2018-Aug-07 22:31N 29°54' W 012°51'911.2
2018-Aug-07 21:44N 29°45' W 012°53'311.3
2018-Aug-07 21:30N 29°43' W 012°53'611.3
2018-Aug-07 21:00N 29°37' W 012°55'611.4
2018-Aug-07 20:30N 29°32' W 012°57'611.4
2018-Aug-07 19:58N 29°26' W 012°58'611.7
2018-Aug-07 19:25N 29°20' W 013°01'811.8
2018-Aug-07 18:43N 29°12' W 013°04'311.8
2018-Aug-07 18:30N 29°10' W 013°05'911.7
2018-Aug-07 17:46N 29°02' W 013°10'411.6
2018-Aug-07 17:27N 28°59' W 013°12'511.6
2018-Aug-07 17:00N 28°54' W 013°14'611.6
2018-Aug-07 16:30N 28°49' W 013°17'611.4
2018-Aug-07 16:00N 28°44' W 013°20'611.4
2018-Aug-07 15:30N 28°38' W 013°22'611.9
2018-Aug-07 15:00N 28°33' W 013°25'812.0
2018-Aug-07 14:22N 28°26' W 013°29'712.2
2018-Aug-07 13:50N 28°20' W 013°32'412.2
2018-Aug-07 13:29N 28°16' W 013°34'612.0
2018-Aug-07 12:57N 28°10' W 013°37'511.7
2018-Aug-07 12:29N 28°05' W 013°40'611.6
2018-Aug-07 12:00N 28°00' W 013°42'711.4
2018-Aug-07 11:21N 27°54' W 013°47'412.0
2018-Aug-07 11:00N 27°51' W 013°51'612.0
2018-Aug-07 10:30N 27°47' W 013°56'711.9
2018-Aug-07 09:55N 27°42' W 014°01'912.0
2018-Aug-07 09:09N 27°36' W 014°08'512.3
2018-Aug-07 08:43N 27°32' W 014°13'312.5
2018-Aug-07 08:30N 27°30' W 014°15'612.4
2018-Aug-07 07:59N 27°26' W 014°20'612.3
2018-Aug-07 07:30N 27°21' W 014°24'612.2
2018-Aug-07 07:00N 27°17' W 014°29'812.4
2018-Aug-07 06:22N 27°11' W 014°35'512.2
2018-Aug-07 05:59N 27°08' W 014°39'5211.5
2018-Aug-07 01:28N 26°31' W 015°19'  

Dump ship's entire track history